Terminal Aerodrome Forecast
Issued by NWS

Current Version | Previous Version | Text Only | Print | Product List | Glossary Off
Versions: 1 2 3 4 5 6 7 8 9 10 11 12 13 14 15 16 17

000
FTUS41 KILN 042100 AAA
TAFLCK
TAF AMD
KLCK 042126Z 0421/0518 25009KT P6SM -SHRA SCT060 OVC100
     FM042300 23006KT P6SM BKN120
     FM050500 18003KT P6SM VCTS BKN070CB
     FM050900 19004KT P6SM -SHRA SCT040 OVC070
     FM051400 25010KT P6SM VCSH BKN050 OVC150=

USA.gov is the U.S. government's official web portal to all federal, state and local government web resources and services.